Time;durP1;ratioP1;P1;durP2;ratioP2;P2;SDS_P1;SDS_P2;PMS_P1;PMS_P2;Temp;Humidity;BMP_temperature;BMP_pressure;BME280_temperature;BME280_humidity;BME280_pressure;Samples;Min_cycle;Max_cycle;Signal;HPM_P1;HPM_P2
2021/11/03 00:02:26;;;;;;;10.30;8.77;;;7.30;99.90;;;;;;5073031;28;20554;-79
2021/11/03 00:04:52;;;;;;;9.47;8.57;;;7.30;99.90;;;;;;5073318;28;20487;-79
2021/11/03 00:07:19;;;;;;;9.50;8.07;;;7.30;99.90;;;;;;5073113;28;20500;-88
2021/11/03 00:09:46;;;;;;;9.27;8.40;;;7.20;99.90;;;;;;5073023;28;20581;-79
2021/11/03 00:12:16;;;;;;;9.53;8.23;;;7.10;99.90;;;;;;5072903;28;20868;-80
2021/11/03 00:14:42;;;;;;;8.07;7.30;;;7.10;99.90;;;;;;5073109;28;20482;-80
2021/11/03 00:17:09;;;;;;;8.70;7.40;;;7.10;99.90;;;;;;5073107;28;20961;-79
2021/11/03 00:19:35;;;;;;;8.95;7.35;;;7.00;99.90;;;;;;5072895;28;20475;-80
2021/11/03 00:22:02;;;;;;;9.35;7.47;;;7.00;99.90;;;;;;5072485;28;20189;-80
2021/11/03 00:24:29;;;;;;;8.73;7.33;;;7.00;99.90;;;;;;5072816;28;20553;-80
2021/11/03 00:26:55;;;;;;;8.00;7.30;;;7.00;99.90;;;;;;5072412;28;20515;-79
2021/11/03 00:29:23;;;;;;;8.02;7.28;;;6.90;99.90;;;;;;5073008;28;20276;-80
2021/11/03 00:31:50;;;;;;;7.83;6.80;;;6.90;99.90;;;;;;5072793;28;20227;-80
2021/11/03 00:34:16;;;;;;;13.40;8.30;;;6.90;99.90;;;;;;5072947;28;20455;-79
2021/11/03 00:36:43;;;;;;;8.63;6.90;;;6.90;99.90;;;;;;5072743;28;20189;-79
2021/11/03 00:39:09;;;;;;;8.40;7.57;;;6.90;99.90;;;;;;5075516;28;20554;-80
2021/11/03 00:41:36;;;;;;;8.30;7.03;;;6.90;99.90;;;;;;5096819;28;20598;-80
2021/11/03 00:44:03;;;;;;;6.90;6.27;;;6.90;99.90;;;;;;5079243;28;20533;-80
2021/11/03 00:46:31;;;;;;;8.63;6.40;;;6.90;99.90;;;;;;5076626;28;20558;-80
2021/11/03 00:48:58;;;;;;;8.20;7.40;;;6.90;99.90;;;;;;5076661;28;20479;-80
2021/11/03 00:51:24;;;;;;;9.85;7.60;;;6.90;99.90;;;;;;5076513;28;20490;-80
2021/11/03 00:53:51;;;;;;;7.80;7.00;;;6.90;99.90;;;;;;5076550;28;20224;-81
2021/11/03 00:56:18;;;;;;;7.87;6.20;;;6.90;99.90;;;;;;5076370;28;20887;-80
2021/11/03 00:58:44;;;;;;;8.30;6.85;;;6.80;99.90;;;;;;5076536;28;20447;-79
2021/11/03 01:01:11;;;;;;;7.77;6.97;;;6.70;99.90;;;;;;5076191;28;20220;-79
2021/11/03 01:03:39;;;;;;;7.50;6.87;;;6.90;99.90;;;;;;5076207;28;20564;-79
2021/11/03 01:06:06;;;;;;;7.32;6.63;;;6.80;99.90;;;;;;5076251;28;20942;-78
2021/11/03 01:08:33;;;;;;;11.00;6.73;;;6.90;99.90;;;;;;5075891;28;20525;-80
2021/11/03 01:11:01;;;;;;;7.83;7.03;;;6.80;99.90;;;;;;5076174;28;20452;-80
2021/11/03 01:13:29;;;;;;;7.53;6.77;;;6.80;99.90;;;;;;5076298;28;20478;-80
2021/11/03 01:15:57;;;;;;;8.00;7.20;;;6.80;99.90;;;;;;5075977;28;20490;-80
2021/11/03 01:18:25;;;;;;;7.13;6.53;;;6.80;99.90;;;;;;5076072;28;20473;-80
2021/11/03 01:20:53;;;;;;;7.67;7.07;;;6.70;99.90;;;;;;5075882;28;20479;-80
2021/11/03 01:23:20;;;;;;;8.00;7.20;;;6.70;99.90;;;;;;5075867;28;20515;-80
2021/11/03 01:25:48;;;;;;;8.55;7.10;;;6.70;99.90;;;;;;5075766;28;20532;-80
2021/11/03 01:28:14;;;;;;;7.83;6.47;;;6.60;99.90;;;;;;5075943;28;20221;-80
2021/11/03 01:30:41;;;;;;;13.02;6.82;;;6.70;99.90;;;;;;5075044;28;20542;-80
2021/11/03 01:33:08;;;;;;;8.23;6.50;;;6.60;99.90;;;;;;5055728;28;20213;-79
2021/11/03 01:35:35;;;;;;;8.13;7.33;;;6.60;99.90;;;;;;5055578;28;20483;-80
2021/11/03 01:38:03;;;;;;;6.95;6.25;;;6.60;99.90;;;;;;5055703;28;20501;-79
2021/11/03 01:40:32;;;;;;;7.90;6.70;;;6.60;99.90;;;;;;5055749;28;20273;-79
2021/11/03 01:43:00;;;;;;;9.05;6.68;;;6.60;99.90;;;;;;5064265;28;20564;-79
2021/11/03 01:45:28;;;;;;;10.52;7.28;;;6.50;99.90;;;;;;5074878;28;20242;-79
2021/11/03 01:47:58;;;;;;;8.73;6.93;;;6.50;99.90;;;;;;5075106;28;20189;-80
2021/11/03 01:50:31;;;;;;;7.80;7.10;;;6.40;99.90;;;;;;5075239;28;20224;-80
2021/11/03 01:53:01;;;;;;;7.40;6.70;;;6.30;99.90;;;;;;5075575;28;20861;-79
2021/11/03 01:55:30;;;;;;;7.77;6.53;;;6.30;99.90;;;;;;5075477;28;20542;-80
2021/11/03 01:58:03;;;;;;;8.87;6.30;;;6.20;99.90;;;;;;5075339;28;20497;-80
2021/11/03 02:00:32;;;;;;;7.00;6.40;;;6.20;99.90;;;;;;5075152;28;20528;-80
2021/11/03 02:03:06;;;;;;;6.72;6.07;;;6.10;99.90;;;;;;5075290;28;20514;-79
2021/11/03 02:05:36;;;;;;;7.22;6.63;;;6.10;99.90;;;;;;5075286;28;20292;-78
2021/11/03 02:08:04;;;;;;;6.50;5.90;;;6.00;99.90;;;;;;5075184;28;20185;-79
2021/11/03 02:10:32;;;;;;;6.93;6.25;;;6.00;99.90;;;;;;5075026;28;20538;-78
2021/11/03 02:12:59;;;;;;;9.75;7.63;;;5.90;99.90;;;;;;5074907;28;20193;-80
2021/11/03 02:15:26;;;;;;;7.28;6.50;;;5.90;99.90;;;;;;5074884;28;20590;-78
2021/11/03 02:17:53;;;;;;;7.60;6.80;;;5.80;99.90;;;;;;5074955;28;20666;-79
2021/11/03 02:20:22;;;;;;;7.20;6.50;;;5.80;99.90;;;;;;5075036;28;20189;-79
2021/11/03 02:22:59;;;;;;;11.40;8.25;;;5.80;99.90;;;;;;5074659;28;20648;-78
2021/11/03 02:25:31;;;;;;;10.00;7.30;;;5.80;99.90;;;;;;5074661;28;20193;-79
2021/11/03 02:27:59;;;;;;;12.52;7.32;;;5.90;99.90;;;;;;5074686;28;20224;-79
2021/11/03 02:30:27;;;;;;;8.27;7.13;;;5.80;99.90;;;;;;5075008;28;20288;-80
2021/11/03 02:32:55;;;;;;;10.73;7.22;;;5.80;99.90;;;;;;5074770;28;20280;-79
2021/11/03 02:35:22;;;;;;;7.05;6.45;;;5.80;99.90;;;;;;5074708;28;20239;-79
2021/11/03 02:37:51;;;;;;;8.27;7.47;;;5.80;99.90;;;;;;5074498;28;20193;-79
2021/11/03 02:40:37;;;;;;;9.52;7.15;;;5.80;99.90;;;;;;5074481;28;20185;-79
2021/11/03 02:43:08;;;;;;;9.73;6.20;;;5.80;99.90;;;;;;5073577;28;20224;-79
2021/11/03 02:45:40;;;;;;;8.02;7.00;;;5.80;99.90;;;;;;5074337;28;20664;-79
2021/11/03 02:48:07;;;;;;;10.30;6.55;;;5.80;99.90;;;;;;5074341;28;20225;-79
2021/11/03 02:50:34;;;;;;;7.22;6.63;;;5.80;99.90;;;;;;5074221;28;20189;-80
2021/11/03 02:53:01;;;;;;;8.95;7.18;;;5.80;99.90;;;;;;5074135;28;20714;-79
2021/11/03 02:55:28;;;;;;;7.60;6.90;;;5.80;99.90;;;;;;5074497;28;20193;-79
2021/11/03 02:57:55;;;;;;;8.50;7.57;;;5.70;99.90;;;;;;5074289;28;20194;-80
2021/11/03 03:00:25;;;;;;;12.48;6.95;;;5.80;99.90;;;;;;5073226;28;20193;-79
2021/11/03 03:02:52;;;;;;;10.40;8.30;;;5.80;99.90;;;;;;5073996;28;20243;-79
2021/11/03 03:05:19;;;;;;;11.98;8.65;;;5.80;99.90;;;;;;5073986;28;20660;-79
2021/11/03 03:07:45;;;;;;;8.75;7.95;;;5.70;99.90;;;;;;5073919;28;20671;-79
2021/11/03 03:10:12;;;;;;;11.27;8.18;;;5.70;99.90;;;;;;5074015;28;20726;-79
2021/11/03 03:12:38;;;;;;;12.45;8.48;;;5.70;99.90;;;;;;5073928;28;20290;-79
2021/11/03 03:15:07;;;;;;;10.33;8.50;;;5.60;99.90;;;;;;5073904;28;20231;-79
2021/11/03 03:17:34;;;;;;;10.50;8.10;;;5.50;99.90;;;;;;5073643;28;20939;-79
2021/11/03 03:20:00;;;;;;;10.25;7.68;;;5.50;99.90;;;;;;5073381;28;20284;-79
2021/11/03 03:22:27;;;;;;;8.15;7.35;;;5.40;99.90;;;;;;5073886;28;20225;-79
2021/11/03 03:24:54;;;;;;;8.88;7.85;;;5.40;99.90;;;;;;5073593;28;20313;-79
2021/11/03 03:27:20;;;;;;;11.48;7.57;;;5.30;99.90;;;;;;5073717;28;20640;-78
2021/11/03 03:29:47;;;;;;;8.73;7.85;;;5.30;99.90;;;;;;5073584;28;20193;-78
2021/11/03 03:32:15;;;;;;;11.00;9.27;;;5.20;99.90;;;;;;5073498;28;20185;-79
2021/11/03 03:34:42;;;;;;;14.32;9.27;;;5.10;99.90;;;;;;5073882;28;20267;-78
2021/11/03 03:37:09;;;;;;;12.60;8.43;;;5.10;99.90;;;;;;5073770;28;20193;-80
2021/11/03 03:39:37;;;;;;;9.93;8.93;;;5.10;99.90;;;;;;5073366;28;20266;-80
2021/11/03 03:42:08;;;;;;;8.70;7.80;;;5.10;99.90;;;;;;5073345;28;20194;-80
2021/11/03 03:44:34;;;;;;;10.10;8.90;;;5.10;99.90;;;;;;5073360;28;20217;-79
2021/11/03 03:47:01;;;;;;;11.02;8.95;;;5.10;99.90;;;;;;5072139;28;20665;-79
2021/11/03 03:49:29;;;;;;;11.55;7.80;;;5.10;99.90;;;;;;5073254;28;20660;-78
2021/11/03 03:51:55;;;;;;;18.88;10.18;;;5.10;99.90;;;;;;5073434;28;20242;-78
2021/11/03 03:54:23;;;;;;;16.23;10.25;;;5.10;99.90;;;;;;5073202;28;20223;-78
2021/11/03 03:56:50;;;;;;;17.98;11.60;;;5.00;99.90;;;;;;5073129;28;20189;-77
2021/11/03 03:59:17;;;;;;;23.35;13.77;;;5.00;99.90;;;;;;5072928;28;20194;-78
2021/11/03 04:01:44;;;;;;;18.52;12.70;;;5.00;99.90;;;;;;5072911;28;20228;-78
2021/11/03 04:04:12;;;;;;;22.48;13.18;;;4.90;99.90;;;;;;5072951;28;20651;-77
2021/11/03 04:06:40;;;;;;;25.25;13.35;;;4.90;99.90;;;;;;5073076;28;20197;-77
2021/11/03 04:09:08;;;;;;;17.63;11.25;;;4.80;99.90;;;;;;5072883;28;20220;-77
2021/11/03 04:11:35;;;;;;;11.63;9.18;;;4.90;99.90;;;;;;5072657;28;20220;-78
2021/11/03 04:14:03;;;;;;;11.25;8.68;;;4.90;99.90;;;;;;5072807;28;20603;-78
2021/11/03 04:16:29;;;;;;;11.98;9.00;;;4.90;99.90;;;;;;5072995;28;20217;-78
2021/11/03 04:18:56;;;;;;;11.63;8.55;;;4.90;99.90;;;;;;5072787;28;20221;-77
2021/11/03 04:21:23;;;;;;;15.00;9.13;;;5.00;99.90;;;;;;5072982;28;20185;-78
2021/11/03 04:23:52;;;;;;;9.90;8.65;;;5.00;99.90;;;;;;5072757;28;20244;-78
2021/11/03 04:26:23;;;;;;;9.65;7.68;;;5.00;99.90;;;;;;5072640;28;20263;-79
2021/11/03 04:28:50;;;;;;;8.70;7.72;;;5.10;99.90;;;;;;5073194;28;20571;-78
2021/11/03 04:31:16;;;;;;;7.53;6.72;;;5.10;99.90;;;;;;5073064;28;20551;-78
2021/11/03 04:33:43;;;;;;;9.35;7.80;;;5.10;99.90;;;;;;5072723;28;20220;-78
2021/11/03 04:36:10;;;;;;;9.52;7.40;;;5.10;99.90;;;;;;5072832;28;20674;-79
2021/11/03 04:38:37;;;;;;;10.95;7.18;;;5.10;99.90;;;;;;5072565;28;20597;-78
2021/11/03 04:41:05;;;;;;;11.25;7.38;;;5.10;99.90;;;;;;5072690;28;20592;-80
2021/11/03 04:43:32;;;;;;;7.25;6.55;;;5.10;99.90;;;;;;5072562;28;20220;-80
2021/11/03 04:45:59;;;;;;;8.05;7.07;;;5.10;99.90;;;;;;5072665;28;20185;-79
2021/11/03 04:48:26;;;;;;;7.00;6.30;;;5.10;99.90;;;;;;5072759;28;20280;-79
2021/11/03 04:50:52;;;;;;;7.55;6.85;;;5.10;99.90;;;;;;5072649;28;20189;-79
2021/11/03 04:53:19;;;;;;;8.25;7.43;;;5.10;99.90;;;;;;5072724;28;20190;-79
2021/11/03 04:55:52;;;;;;;8.00;6.80;;;5.00;99.90;;;;;;5072560;28;20221;-78
2021/11/03 04:58:20;;;;;;;10.30;7.38;;;5.00;99.90;;;;;;5072386;28;20193;-78
2021/11/03 05:00:47;;;;;;;7.85;7.15;;;4.90;99.90;;;;;;5072610;28;20185;-78
2021/11/03 05:03:14;;;;;;;8.73;7.45;;;4.90;99.90;;;;;;5072304;28;20189;-79
2021/11/03 05:05:40;;;;;;;9.38;7.30;;;4.80;99.90;;;;;;5069546;28;20252;-78
2021/11/03 05:08:07;;;;;;;7.78;6.97;;;4.80;99.90;;;;;;5070272;28;20714;-79
2021/11/03 05:10:36;;;;;;;7.50;6.70;;;4.80;99.90;;;;;;5071042;28;20287;-79
2021/11/03 05:13:03;;;;;;;8.35;7.25;;;4.70;99.90;;;;;;5072181;28;20225;-79
2021/11/03 05:15:32;;;;;;;11.45;7.57;;;4.70;99.90;;;;;;5072363;28;20232;-79
2021/11/03 05:18:01;;;;;;;12.20;8.52;;;4.70;99.90;;;;;;5072417;28;20244;-78
2021/11/03 05:20:29;;;;;;;10.77;7.93;;;4.50;99.90;;;;;;5072396;28;20236;-78
2021/11/03 05:22:55;;;;;;;9.15;8.13;;;4.50;99.90;;;;;;5072188;28;20231;-78
2021/11/03 05:25:24;;;;;;;8.68;6.95;;;4.50;99.90;;;;;;5075421;28;20267;-78
2021/11/03 05:27:52;;;;;;;9.15;8.05;;;4.50;99.90;;;;;;5076476;28;20230;-87
2021/11/03 05:30:20;;;;;;;12.02;9.40;;;4.50;99.90;;;;;;5076261;28;20250;-86
2021/11/03 05:32:48;;;;;;;15.48;9.70;;;4.40;99.90;;;;;;5076363;28;20241;-86
2021/11/03 05:35:16;;;;;;;24.98;13.38;;;4.30;99.90;;;;;;5076152;28;20190;-85
2021/11/03 05:37:43;;;;;;;30.70;15.20;;;4.30;99.90;;;;;;5076048;28;20224;-85
2021/11/03 05:40:14;;;;;;;30.77;14.88;;;4.20;99.90;;;;;;5075696;28;20193;-88
2021/11/03 05:42:40;;;;;;;28.08;15.55;;;4.20;99.90;;;;;;5075611;28;20185;-77
2021/11/03 05:45:09;;;;;;;38.72;18.58;;;4.20;99.90;;;;;;5075282;28;20680;-77
2021/11/03 05:47:35;;;;;;;35.55;17.17;;;4.20;99.90;;;;;;5075552;28;20587;-77
2021/11/03 05:50:05;;;;;;;31.50;16.35;;;4.30;99.90;;;;;;5075217;28;20221;-77
2021/11/03 05:52:35;;;;;;;31.98;18.17;;;4.10;99.90;;;;;;5075619;28;20706;-77
2021/11/03 05:55:02;;;;;;;47.42;25.52;;;4.10;99.90;;;;;;5075339;28;20635;-77
2021/11/03 05:57:32;;;;;;;37.70;23.52;;;4.00;99.90;;;;;;5075349;28;20185;-77
2021/11/03 06:00:00;;;;;;;29.55;18.08;;;4.00;99.90;;;;;;5075565;28;20185;-77
2021/11/03 06:02:27;;;;;;;32.13;19.00;;;3.90;99.90;;;;;;5075160;28;20193;-77
2021/11/03 06:04:54;;;;;;;30.42;18.02;;;4.00;99.90;;;;;;5075015;28;20248;-77
2021/11/03 06:07:22;;;;;;;38.88;20.17;;;4.00;99.90;;;;;;5074408;28;20225;-78
2021/11/03 06:09:49;;;;;;;28.95;18.85;;;3.90;99.90;;;;;;5073548;28;20216;-77
2021/11/03 06:12:16;;;;;;;35.60;20.60;;;3.90;99.90;;;;;;5073909;28;20208;-78
2021/11/03 06:14:42;;;;;;;32.10;20.20;;;3.90;99.90;;;;;;5074106;28;20182;-78
2021/11/03 06:17:09;;;;;;;29.60;18.67;;;3.90;99.90;;;;;;5074143;28;20224;-78
2021/11/03 06:19:36;;;;;;;29.05;18.27;;;3.90;99.90;;;;;;5074867;28;20228;-78
2021/11/03 06:22:03;;;;;;;34.00;17.48;;;3.90;99.90;;;;;;5075341;28;20638;-84
2021/11/03 06:24:33;;;;;;;32.35;18.85;;;4.00;99.90;;;;;;5074962;28;20205;-75
2021/11/03 06:26:59;;;;;;;32.65;19.08;;;4.00;99.90;;;;;;5074533;28;20228;-78
2021/11/03 06:29:26;;;;;;;31.25;18.48;;;4.00;99.90;;;;;;5074560;28;20189;-78
2021/11/03 06:31:53;;;;;;;22.83;14.73;;;4.00;99.90;;;;;;5074795;28;20283;-77
2021/11/03 06:34:19;;;;;;;30.42;18.13;;;4.10;99.90;;;;;;5074686;28;20715;-78
2021/11/03 06:36:46;;;;;;;24.85;16.52;;;4.10;99.90;;;;;;5074710;28;20193;-78
2021/11/03 06:39:12;;;;;;;29.33;17.77;;;4.10;99.90;;;;;;5074039;28;20614;-78
2021/11/03 06:41:43;;;;;;;25.20;16.02;;;4.10;99.90;;;;;;5073556;28;20704;-78
2021/11/03 06:44:10;;;;;;;26.85;16.27;;;4.20;99.90;;;;;;5074535;28;20188;-86
2021/11/03 06:46:38;;;;;;;24.08;15.43;;;4.30;99.90;;;;;;5074797;28;20724;-79
2021/11/03 06:49:05;;;;;;;25.10;15.13;;;4.30;99.90;;;;;;5074299;28;20201;-78
2021/11/03 06:51:32;;;;;;;24.50;16.15;;;4.50;99.90;;;;;;5073851;28;20281;-78
2021/11/03 06:54:00;;;;;;;22.48;15.30;;;4.40;99.90;;;;;;5074331;28;20193;-79
2021/11/03 06:56:27;;;;;;;24.65;14.57;;;4.40;99.90;;;;;;5073407;28;20185;-80
2021/11/03 06:58:55;;;;;;;18.17;11.80;;;4.50;99.90;;;;;;5071176;28;20584;-79
2021/11/03 07:01:21;;;;;;;15.30;11.48;;;4.60;99.90;;;;;;5072950;28;20658;-80
2021/11/03 07:03:51;;;;;;;24.05;15.73;;;4.60;99.90;;;;;;5072243;28;20209;-80
2021/11/03 07:06:18;;;;;;;17.25;13.10;;;4.80;99.90;;;;;;5071824;28;20669;-80
2021/11/03 07:08:47;;;;;;;21.17;14.23;;;5.00;99.90;;;;;;5071985;28;20189;-80
2021/11/03 07:11:16;;;;;;;18.63;13.02;;;5.10;99.90;;;;;;5070302;28;20648;-80
2021/11/03 07:13:43;;;;;;;18.50;12.75;;;5.30;99.90;;;;;;5070146;28;20703;-79
2021/11/03 07:16:12;;;;;;;15.18;12.32;;;5.50;99.90;;;;;;5071674;28;20189;-80
2021/11/03 07:18:39;;;;;;;22.35;12.05;;;5.60;99.90;;;;;;5073663;28;20193;-80
2021/11/03 07:21:05;;;;;;;19.40;11.32;;;5.80;99.90;;;;;;5073831;28;20216;-80
2021/11/03 07:23:32;;;;;;;13.45;11.10;;;5.90;99.90;;;;;;5073751;28;20279;-79
2021/11/03 07:26:02;;;;;;;17.60;12.43;;;6.00;99.90;;;;;;5073511;28;20282;-79
2021/11/03 07:28:29;;;;;;;17.07;11.97;;;6.10;99.90;;;;;;5073531;28;20611;-79
2021/11/03 07:30:56;;;;;;;15.95;11.43;;;6.20;99.90;;;;;;5074104;28;20799;-80
2021/11/03 07:33:25;;;;;;;17.95;11.32;;;6.30;99.90;;;;;;5073528;28;20202;-79
2021/11/03 07:35:52;;;;;;;14.95;10.63;;;6.40;99.90;;;;;;5073356;28;20221;-79
2021/11/03 07:38:19;;;;;;;15.85;12.30;;;6.50;99.90;;;;;;5073322;28;20342;-79
2021/11/03 07:40:48;;;;;;;16.55;12.20;;;6.60;99.90;;;;;;5073491;28;20608;-79
2021/11/03 07:43:18;;;;;;;18.15;14.13;;;6.70;99.90;;;;;;5073367;28;20213;-79
2021/11/03 07:45:46;;;;;;;14.30;12.40;;;6.80;99.90;;;;;;5073084;28;20217;-80
2021/11/03 07:48:13;;;;;;;19.20;11.97;;;6.90;99.90;;;;;;5073013;28;20626;-80
2021/11/03 07:50:44;;;;;;;20.50;14.70;;;7.00;99.90;;;;;;5072957;28;20538;-79
2021/11/03 07:53:13;;;;;;;29.70;19.40;;;7.10;99.90;;;;;;5073300;28;20479;-79
2021/11/03 07:55:43;;;;;;;26.03;17.70;;;7.20;99.90;;;;;;5073127;28;20448;-79
2021/11/03 07:58:13;;;;;;;33.53;19.00;;;7.30;99.90;;;;;;5073226;28;21147;-80
2021/11/03 08:00:39;;;;;;;30.67;20.30;;;7.30;99.90;;;;;;5073045;28;20542;-80
2021/11/03 08:03:06;;;;;;;39.30;20.23;;;7.40;99.90;;;;;;5072981;28;20447;-81
2021/11/03 08:05:33;;;;;;;37.50;20.53;;;7.50;99.90;;;;;;5073054;28;20249;-80
2021/11/03 08:08:06;;;;;;;36.10;23.20;;;7.60;99.90;;;;;;5073204;28;20460;-83
2021/11/03 08:10:33;;;;;;;38.53;22.60;;;7.60;99.90;;;;;;5066577;28;20455;-78
2021/11/03 08:12:59;;;;;;;45.73;22.67;;;7.70;99.90;;;;;;5071642;28;20479;-78
2021/11/03 08:15:27;;;;;;;37.40;21.67;;;7.80;99.90;;;;;;5071994;28;20909;-78
2021/11/03 08:17:56;;;;;;;36.67;21.13;;;7.90;99.90;;;;;;5071063;28;21029;-78
2021/11/03 08:20:26;;;;;;;35.73;20.93;;;8.00;99.90;;;;;;5069646;28;20859;-78
2021/11/03 08:22:53;;;;;;;28.73;19.07;;;8.20;99.90;;;;;;5071288;28;20483;-78
2021/11/03 08:25:22;;;;;;;25.73;16.03;;;8.30;99.90;;;;;;5070435;28;20499;-78
2021/11/03 08:27:48;;;;;;;24.20;15.80;;;8.40;99.90;;;;;;5071202;28;20479;-78
2021/11/03 08:30:17;;;;;;;15.53;12.80;;;8.50;99.90;;;;;;5070004;28;20510;-77
2021/11/03 08:32:48;;;;;;;13.70;11.80;;;8.60;99.90;;;;;;5066206;28;20542;-78
2021/11/03 08:35:16;;;;;;;12.00;10.33;;;8.70;99.90;;;;;;5069423;28;20455;-78
2021/11/03 08:37:43;;;;;;;17.00;10.83;;;8.80;99.90;;;;;;5070086;28;20496;-78
2021/11/03 08:40:14;;;;;;;11.00;9.73;;;9.00;99.90;;;;;;5071318;28;20460;-78
2021/11/03 08:42:42;;;;;;;14.97;10.70;;;9.10;99.90;;;;;;5071953;28;20522;-78
2021/11/03 08:45:11;;;;;;;17.47;11.07;;;9.20;99.90;;;;;;5072167;28;20566;-78
2021/11/03 08:47:39;;;;;;;14.50;10.77;;;9.30;99.90;;;;;;5072100;28;20539;-78
2021/11/03 08:50:10;;;;;;;15.43;10.73;;;9.50;99.90;;;;;;5071975;28;20996;-78
2021/11/03 08:52:36;;;;;;;14.30;10.73;;;9.60;99.90;;;;;;5072197;28;20924;-78
2021/11/03 08:55:03;;;;;;;9.90;9.00;;;9.70;99.90;;;;;;5071963;28;20479;-78
2021/11/03 08:57:33;;;;;;;10.57;9.57;;;9.90;99.90;;;;;;5071744;28;20534;-78
2021/11/03 09:00:02;;;;;;;10.03;8.87;;;10.00;99.90;;;;;;5075114;28;20538;-78
2021/11/03 09:02:29;;;;;;;12.00;9.50;;;10.10;99.90;;;;;;5076022;28;20452;-78
2021/11/03 09:04:55;;;;;;;14.70;10.50;;;10.20;99.90;;;;;;5076003;28;20482;-76
2021/11/03 09:07:22;;;;;;;15.00;12.10;;;10.30;99.90;;;;;;5076047;28;20454;-76
2021/11/03 09:09:49;;;;;;;11.30;9.20;;;10.30;99.90;;;;;;5075501;28;20455;-76
2021/11/03 09:12:17;;;;;;;11.13;9.63;;;10.40;99.90;;;;;;5074419;28;20455;-76
2021/11/03 09:14:44;;;;;;;9.77;8.77;;;10.50;99.90;;;;;;5074719;28;20978;-76
2021/11/03 09:17:12;;;;;;;8.30;7.60;;;10.50;99.90;;;;;;5075399;28;20482;-78
2021/11/03 09:19:39;;;;;;;9.07;8.17;;;10.60;99.90;;;;;;5075230;28;20456;-78
2021/11/03 09:22:07;;;;;;;10.93;9.87;;;10.80;99.90;;;;;;5075409;28;20485;-78
2021/11/03 09:24:35;;;;;;;8.00;7.20;;;10.80;99.90;;;;;;5075755;28;20474;-79
2021/11/03 09:27:04;;;;;;;10.60;8.47;;;10.90;99.90;;;;;;5075080;28;20541;-78
2021/11/03 09:29:30;;;;;;;9.30;8.50;;;10.90;99.90;;;;;;5075531;28;20431;-79
2021/11/03 09:31:57;;;;;;;10.10;8.00;;;10.90;99.90;;;;;;5075406;28;20449;-78
2021/11/03 09:34:25;;;;;;;9.10;8.30;;;11.00;99.90;;;;;;5075308;28;20526;-79
2021/11/03 09:36:54;;;;;;;9.93;8.97;;;11.10;99.90;;;;;;5074993;28;20860;-79
2021/11/03 09:39:21;;;;;;;10.17;9.07;;;11.20;99.90;;;;;;5077968;28;20454;-77
2021/11/03 09:41:51;;;;;;;10.00;9.00;;;11.30;99.90;;;;;;5079034;28;20478;-78
2021/11/03 09:44:20;;;;;;;9.27;8.47;;;11.40;99.90;;;;;;5083591;28;20958;-78
2021/11/03 09:46:51;;;;;;;10.00;8.80;;;11.50;99.90;;;;;;5074971;28;20505;-78
2021/11/03 09:49:24;;;;;;;14.70;9.50;;;11.50;99.90;;;;;;5075078;28;20606;-78
2021/11/03 09:51:56;;;;;;;10.33;9.33;;;11.60;99.90;;;;;;5074818;28;20454;-78
2021/11/03 09:54:27;;;;;;;8.80;7.90;;;11.60;99.90;;;;;;5075245;28;20471;-78
2021/11/03 09:56:57;;;;;;;8.40;7.60;;;11.60;99.90;;;;;;5075237;28;20447;-78
2021/11/03 09:59:36;;;;;;;9.40;8.50;;;11.70;99.90;;;;;;5075140;28;20830;-78
2021/11/03 10:02:22;;;;;;;8.67;7.90;;;11.70;99.90;;;;;;5074698;28;20479;-78
2021/11/03 10:05:04;;;;;;;9.87;8.50;;;11.70;99.90;;;;;;5074967;28;20787;-78
2021/11/03 10:07:42;;;;;;;7.40;6.80;;;11.70;99.90;;;;;;5074778;28;20878;-78
2021/11/03 10:10:11;;;;;;;10.50;9.33;;;11.80;99.90;;;;;;5074144;28;20526;-78
2021/11/03 10:12:38;;;;;;;8.50;7.60;;;11.80;99.90;;;;;;5074796;28;20529;-78
2021/11/03 10:15:05;;;;;;;22.73;9.40;;;12.00;99.90;;;;;;5074409;28;21010;-78
2021/11/03 10:17:32;;;;;;;8.83;7.93;;;12.10;99.90;;;;;;5073873;28;20534;-78
2021/11/03 10:19:59;;;;;;;9.33;7.80;;;12.20;99.90;;;;;;5073610;28;20444;-78
2021/11/03 10:22:36;;;;;;;8.80;7.30;;;12.30;99.90;;;;;;5071024;28;20483;-78
2021/11/03 10:25:23;;;;;;;9.30;8.30;;;12.40;99.90;;;;;;5073271;28;20875;-78
2021/11/03 10:27:54;;;;;;;9.20;8.30;;;12.50;99.90;;;;;;5073207;28;20508;-79
2021/11/03 10:30:26;;;;;;;11.43;7.30;;;12.60;99.90;;;;;;5071034;28;20957;-78
2021/11/03 10:32:57;;;;;;;8.47;7.63;;;12.70;99.90;;;;;;5073259;28;20547;-78
2021/11/03 10:35:29;;;;;;;7.67;6.37;;;12.80;99.90;;;;;;5073182;28;20993;-78
2021/11/03 10:38:04;;;;;;;7.97;7.30;;;12.90;99.90;;;;;;5073216;28;20542;-78
2021/11/03 10:40:41;;;;;;;7.30;6.70;;;13.10;99.90;;;;;;5070422;28;20447;-78
2021/11/03 10:43:24;;;;;;;6.77;6.00;;;13.10;99.90;;;;;;5072906;28;20538;-78
2021/11/03 10:45:59;;;;;;;7.60;6.93;;;13.20;99.90;;;;;;5072843;28;20586;-78
2021/11/03 10:48:28;;;;;;;6.80;6.20;;;13.30;99.90;;;;;;5073077;28;20451;-78
2021/11/03 10:51:12;;;;;;;7.10;5.80;;;13.30;99.90;;;;;;5072854;28;20447;-78
2021/11/03 10:53:51;;;;;;;5.57;5.10;;;13.30;99.90;;;;;;5072964;28;20459;-78
2021/11/03 10:56:23;;;;;;;5.50;5.10;;;13.40;99.90;;;;;;5070726;28;20526;-78
2021/11/03 10:59:00;;;;;;;7.10;5.90;;;13.30;99.90;;;;;;5072894;28;20467;-78
2021/11/03 11:01:32;;;;;;;6.03;5.60;;;13.40;99.90;;;;;;5073035;28;20512;-78
2021/11/03 11:04:04;;;;;;;6.83;6.17;;;13.40;99.90;;;;;;5072504;28;20459;-78
2021/11/03 11:06:35;;;;;;;7.07;6.47;;;13.30;99.90;;;;;;5071094;28;20570;-78
2021/11/03 11:09:19;;;;;;;6.70;6.10;;;13.30;99.90;;;;;;5072632;28;20534;-78
2021/11/03 11:11:48;;;;;;;6.27;5.67;;;13.40;99.90;;;;;;5072916;28;20451;-78
2021/11/03 11:14:19;;;;;;;7.70;6.23;;;13.40;99.90;;;;;;5072788;28;20479;-78
2021/11/03 11:16:50;;;;;;;10.63;5.70;;;13.40;99.90;;;;;;5072318;28;20443;-78
2021/11/03 11:19:31;;;;;;;6.83;6.23;;;13.50;99.90;;;;;;5072702;28;20470;-78
2021/11/03 11:22:01;;;;;;;6.00;5.50;;;13.50;99.90;;;;;;5067544;28;20458;-78
2021/11/03 11:24:34;;;;;;;5.90;5.30;;;13.50;99.90;;;;;;5071667;28;20968;-78
2021/11/03 11:27:13;;;;;;;5.23;4.73;;;13.50;99.90;;;;;;5070603;28;20573;-78
2021/11/03 11:29:46;;;;;;;5.47;5.07;;;13.40;99.90;;;;;;5070866;28;20542;-78
2021/11/03 11:32:24;;;;;;;5.57;5.17;;;13.30;99.90;;;;;;5071788;28;20861;-78
2021/11/03 11:35:01;;;;;;;5.73;5.00;;;13.30;99.90;;;;;;5071728;28;20980;-78
2021/11/03 11:37:34;;;;;;;5.60;5.10;;;13.50;99.90;;;;;;5071661;28;20458;-78
2021/11/03 11:40:18;;;;;;;5.13;4.80;;;13.50;99.90;;;;;;5071487;28;20543;-78
2021/11/03 11:42:51;;;;;;;6.33;5.17;;;13.60;99.90;;;;;;5071814;28;20475;-78
2021/11/03 11:45:20;;;;;;;4.97;4.50;;;13.60;99.90;;;;;;5070136;28;20542;-78
2021/11/03 11:47:50;;;;;;;4.83;4.43;;;13.50;99.90;;;;;;5071590;28;20479;-78
2021/11/03 11:50:24;;;;;;;6.27;5.67;;;13.20;99.90;;;;;;5070670;28;20486;-78
2021/11/03 11:52:52;;;;;;;6.50;5.90;;;12.90;99.90;;;;;;5071620;28;20554;-78
2021/11/03 11:55:27;;;;;;;6.77;6.17;;;12.50;99.90;;;;;;5071127;28;20451;-78
2021/11/03 11:58:26;;;;;;;6.03;5.57;;;12.30;99.90;;;;;;5071208;28;20447;-78
2021/11/03 12:01:28;;;;;;;7.70;7.00;;;12.10;99.90;;;;;;5071184;28;20526;-78
2021/11/03 12:04:22;;;;;;;7.63;6.93;;;11.80;99.90;;;;;;5071041;28;20501;-78
2021/11/03 12:07:08;;;;;;;7.10;6.40;;;11.60;99.90;;;;;;5071128;28;20566;-78
2021/11/03 12:09:37;;;;;;;6.73;6.17;;;11.40;99.90;;;;;;5068747;28;20547;-78
2021/11/03 12:12:21;;;;;;;7.70;6.90;;;11.20;99.90;;;;;;5070845;28;20451;-78
2021/11/03 12:14:50;;;;;;;7.33;6.63;;;11.10;99.90;;;;;;5072230;28;20451;-78
2021/11/03 12:17:34;;;;;;;8.90;7.10;;;11.00;99.90;;;;;;5070808;28;20526;-78
2021/11/03 12:20:01;;;;;;;7.50;6.67;;;10.90;99.90;;;;;;5071556;28;20550;-78
2021/11/03 12:22:52;;;;;;;8.13;7.30;;;10.90;99.90;;;;;;5068942;28;20865;-78
2021/11/03 12:25:43;;;;;;;7.60;6.43;;;10.80;99.90;;;;;;5071007;28;20477;-78
2021/11/03 12:28:53;;;;;;;8.17;6.20;;;10.70;99.90;;;;;;5071160;28;21040;-78
2021/11/03 12:31:23;;;;;;;8.23;7.53;;;10.50;99.90;;;;;;5071235;28;21077;-78
2021/11/03 12:34:16;;;;;;;8.10;7.30;;;10.40;99.90;;;;;;5076356;28;20850;-78
2021/11/03 12:37:02;;;;;;;6.97;6.27;;;10.40;99.90;;;;;;5075480;28;20976;-78
2021/11/03 12:39:53;;;;;;;7.40;6.70;;;10.40;99.90;;;;;;5077641;28;20455;-78
2021/11/03 12:42:27;;;;;;;7.37;6.77;;;10.30;99.90;;;;;;5077277;28;20478;-78
2021/11/03 12:45:07;;;;;;;6.77;6.27;;;10.30;99.90;;;;;;5077242;28;20957;-78
2021/11/03 12:47:45;;;;;;;8.07;6.30;;;10.30;99.90;;;;;;5077351;28;20565;-78
2021/11/03 12:50:18;;;;;;;7.30;6.60;;;10.20;99.90;;;;;;5077247;28;20538;-78
2021/11/03 12:52:46;;;;;;;6.83;5.83;;;10.20;99.90;;;;;;5077302;28;20490;-78
2021/11/03 12:55:22;;;;;;;5.97;5.40;;;10.20;99.90;;;;;;5077354;28;20479;-78
2021/11/03 12:57:49;;;;;;;5.27;4.93;;;10.20;99.90;;;;;;5077502;28;20861;-78
2021/11/03 13:00:19;;;;;;;5.90;5.40;;;10.10;99.90;;;;;;5076430;28;20446;-78